Terminal Aerodrome Forecast
Issued by NWS

Home | Current Version | Previous Version | Text Only | Print | Product List | Glossary On
Versions: 1 2 3 4 5 6 7 8 9 10 11 12 13 14 15 16 17 18 19 20 21 22 23 24 25 26 27 28 29 30 31 32 33 34
000
FTUS45 KGJT 230529
TAFDRO
TAFDRO
TAF
KDRO 230529Z 2306/2406 32006KT P6SM VCSH BKN090
      TEMPO 2306/2308 VRB10G18KT -SHRA BKN070
     FM230800 03004KT P6SM SCT100 BKN140
     FM231500 VRB03KT P6SM SCT100
     FM231900 22007KT P6SM BKN100
     FM232100 23010G15KT P6SM VCTS SCT060CB BKN100
     FM240300 03005KT P6SM VCSH SCT060 BKN100=

USA.gov is the U.S. government's official web portal to all federal, state and local government web resources and services.